Merriman, Nebraska
Current Conditions -  °F | °C
As of 5:52 AM on Friday 31 Oct 2014 (Local Time) from KIEN Reporting Station
Overcast Overcast  
Wind Chill: 21°   Ceiling: 500
Heat Index: 28°   Visibility: 10mi
Dew Point: 27°   Wind: 7mph
Humidity: 96%   Direction: 140°SE
Pressure: 30.45"   Gusts: NA
Location:  42.92°N, 101.7°W
Report Text: KIEN 311152Z AUTO 14006KT 10SM OVC005 M02/M03 A3045 RMK AO2 SLP332 I6000 T10221028 11011 21056 58006
Loading
Personal Weather Stations






























Interactive Weather Map
Tropical Storm Tracking
New forecast layout! Learn more

10-Day Weather Forecast

Advertisements
Track Severe Weather on mobile